Time;durP1;ratioP1;P1;durP2;ratioP2;P2;SDS_P1;SDS_P2;PMS_P1;PMS_P2;Temp;Humidity;BMP_temperature;BMP_pressure;BME280_temperature;BME280_humidity;BME280_pressure;Samples;Min_cycle;Max_cycle;Signal;HPM_P1;HPM_P2
2023/08/22 00:00:31;;;;;;;11.30;10.37;;;23.90;1.00;;;;;;6338548;22;20720;-41
2023/08/22 00:02:58;;;;;;;11.63;10.73;;;23.90;1.00;;;;;;6338864;22;20378;-42
2023/08/22 00:05:23;;;;;;;15.13;11.50;;;23.90;1.00;;;;;;6337190;22;20404;-39
2023/08/22 00:07:49;;;;;;;11.80;10.70;;;23.90;1.00;;;;;;6334908;22;20353;-38
2023/08/22 00:10:16;;;;;;;11.30;10.20;;;23.90;1.00;;;;;;6338236;22;20341;-40
2023/08/22 00:12:42;;;;;;;11.53;10.40;;;23.90;1.00;;;;;;6337932;22;20672;-38
2023/08/22 00:15:10;;;;;;;11.83;10.83;;;23.80;1.00;;;;;;6338776;22;20538;-39
2023/08/22 00:17:39;;;;;;;12.33;11.20;;;23.80;1.00;;;;;;6338015;22;20385;-40
2023/08/22 00:20:08;;;;;;;11.83;10.83;;;23.80;1.00;;;;;;6339560;22;20349;-41
2023/08/22 00:22:34;;;;;;;11.80;10.83;;;23.80;1.00;;;;;;6340022;22;20385;-38
2023/08/22 00:25:00;;;;;;;12.60;11.50;;;23.80;1.00;;;;;;6339584;22;20780;-39
2023/08/22 00:27:25;;;;;;;12.27;11.27;;;23.80;1.00;;;;;;6339027;22;20781;-39
2023/08/22 00:29:51;;;;;;;13.03;11.87;;;23.80;1.00;;;;;;6339052;22;20167;-40
2023/08/22 00:32:17;;;;;;;12.90;11.80;;;23.80;1.00;;;;;;6338598;22;20193;-40
2023/08/22 00:34:42;;;;;;;12.50;11.50;;;23.70;1.00;;;;;;6339114;22;20159;-39
2023/08/22 00:37:08;;;;;;;12.30;11.30;;;23.70;1.00;;;;;;6340651;22;20127;-39
2023/08/22 00:39:33;;;;;;;12.53;11.43;;;23.70;1.00;;;;;;6341185;22;20419;-40
2023/08/22 00:41:59;;;;;;;13.37;12.17;;;23.70;1.00;;;;;;6340735;22;20155;-39
2023/08/22 00:44:25;;;;;;;12.13;11.23;;;23.70;1.00;;;;;;6341267;22;20151;-42
2023/08/22 00:46:51;;;;;;;12.80;11.60;;;23.60;1.00;;;;;;6339544;22;20162;-42
2023/08/22 00:49:16;;;;;;;13.30;12.03;;;23.60;1.00;;;;;;6337824;22;20132;-39
2023/08/22 00:51:42;;;;;;;13.23;12.03;;;23.60;1.00;;;;;;6337539;22;20820;-39
2023/08/22 00:54:12;;;;;;;11.17;10.27;;;23.60;1.00;;;;;;6338779;22;20197;-39
2023/08/22 00:56:37;;;;;;;11.60;10.43;;;23.60;1.00;;;;;;6337362;22;20391;-40
2023/08/22 00:59:03;;;;;;;12.40;11.40;;;23.50;1.00;;;;;;6338519;22;20381;-41
2023/08/22 01:01:30;;;;;;;12.70;11.70;;;23.50;5.90;;;;;;6337801;22;20191;-40
2023/08/22 01:03:56;;;;;;;12.40;11.40;;;23.40;1.00;;;;;;6338327;22;20423;-40
2023/08/22 01:06:59;;;;;;;13.07;11.87;;;23.40;99.90;;;;;;6340172;22;20381;-42
2023/08/22 01:09:34;;;;;;;11.23;10.30;;;23.40;99.90;;;;;;6338744;22;20171;-40
2023/08/22 01:12:06;;;;;;;13.33;12.13;;;23.30;99.90;;;;;;6338569;22;20685;-39
2023/08/22 01:14:35;;;;;;;15.80;11.83;;;23.20;99.90;;;;;;6337395;22;20759;-39
2023/08/22 01:17:01;;;;;;;13.83;12.53;;;23.20;99.90;;;;;;6337901;22;20393;-38
2023/08/22 01:19:27;;;;;;;12.20;11.00;;;23.20;99.90;;;;;;6337036;22;20605;-39
2023/08/22 01:21:53;;;;;;;12.73;11.70;;;23.20;99.90;;;;;;6338439;22;20452;-41
2023/08/22 01:24:19;;;;;;;13.50;12.40;;;23.20;99.90;;;;;;6340324;22;20547;-42
2023/08/22 01:26:45;;;;;;;12.50;11.50;;;23.20;99.90;;;;;;6339544;22;20381;-38
2023/08/22 01:29:16;;;;;;;13.47;12.20;;;23.20;99.90;;;;;;6340575;22;20456;-40
2023/08/22 01:32:00;;;;;;;11.87;10.97;;;23.20;99.90;;;;;;6340292;22;20424;-41
2023/08/22 01:34:28;;;;;;;12.20;11.30;;;23.20;99.90;;;;;;6339126;22;20423;-39
2023/08/22 01:36:55;;;;;;;13.03;11.83;;;23.10;99.90;;;;;;6337396;22;20782;-41
2023/08/22 01:39:21;;;;;;;11.83;10.83;;;23.20;99.90;;;;;;6336427;22;20423;-40
2023/08/22 01:41:47;;;;;;;13.47;12.13;;;23.10;99.90;;;;;;6338088;22;20408;-39
2023/08/22 01:44:13;;;;;;;11.53;10.40;;;23.10;99.90;;;;;;6337440;22;20446;-41
2023/08/22 01:46:39;;;;;;;12.93;11.90;;;23.10;99.90;;;;;;6338050;22;20325;-40
2023/08/22 01:49:04;;;;;;;12.50;11.50;;;23.00;99.90;;;;;;6337933;22;20372;-37
2023/08/22 01:51:30;;;;;;;12.90;11.80;;;23.00;99.90;;;;;;6338152;22;20194;-40
2023/08/22 01:53:55;;;;;;;11.97;10.97;;;23.00;99.90;;;;;;6339666;22;20148;-38
2023/08/22 01:56:21;;;;;;;12.60;11.50;;;23.00;99.90;;;;;;6337757;22;20205;-39
2023/08/22 01:58:47;;;;;;;13.33;12.23;;;23.00;99.90;;;;;;6340849;22;20372;-41
2023/08/22 02:01:13;;;;;;;12.90;11.57;;;23.00;99.90;;;;;;6340968;22;20127;-39
2023/08/22 02:03:42;;;;;;;14.13;12.93;;;22.90;99.90;;;;;;6341872;22;20152;-39
2023/08/22 02:06:08;;;;;;;12.37;11.30;;;22.90;99.90;;;;;;6341655;22;20450;-39
2023/08/22 02:08:34;;;;;;;12.27;11.33;;;22.90;99.90;;;;;;6340550;22;20779;-39
2023/08/22 02:10:59;;;;;;;13.47;12.37;;;22.80;99.90;;;;;;6339897;22;20420;-41
2023/08/22 02:13:25;;;;;;;11.70;10.80;;;22.80;99.90;;;;;;6339896;22;20158;-39
2023/08/22 02:15:51;;;;;;;14.40;11.40;;;22.80;99.90;;;;;;6339367;22;20361;-39
2023/08/22 02:18:16;;;;;;;12.90;11.80;;;22.80;99.90;;;;;;6340926;22;20215;-39
2023/08/22 02:20:42;;;;;;;11.50;10.53;;;22.80;99.90;;;;;;6339428;22;20430;-41
2023/08/22 02:23:08;;;;;;;13.10;12.03;;;22.80;99.90;;;;;;6338835;22;20191;-39
2023/08/22 02:25:35;;;;;;;12.37;11.27;;;22.80;99.90;;;;;;6340327;22;20484;-39
2023/08/22 02:28:01;;;;;;;11.47;10.67;;;22.70;99.90;;;;;;6341072;22;20437;-39
2023/08/22 02:30:27;;;;;;;13.37;12.07;;;22.60;1.00;;;;;;6341730;22;20377;-39
2023/08/22 02:32:53;;;;;;;13.70;12.50;;;22.60;1.00;;;;;;6338280;22;20878;-38
2023/08/22 02:35:19;;;;;;;12.43;11.43;;;22.60;1.00;;;;;;6339034;22;20155;-42
2023/08/22 02:37:45;;;;;;;12.80;11.80;;;22.60;1.00;;;;;;6340325;22;20147;-39
2023/08/22 02:40:11;;;;;;;13.40;12.30;;;22.60;1.00;;;;;;6339064;22;20769;-39
2023/08/22 02:42:37;;;;;;;14.00;12.80;;;22.60;1.00;;;;;;6339567;22;20502;-39
2023/08/22 02:45:04;;;;;;;12.73;11.53;;;22.60;1.00;;;;;;6337129;22;20723;-41
2023/08/22 02:47:31;;;;;;;12.47;11.37;;;22.60;1.00;;;;;;6335588;22;20684;-42
2023/08/22 02:49:57;;;;;;;12.70;11.60;;;22.60;1.00;;;;;;6337224;22;20380;-39
2023/08/22 02:52:23;;;;;;;11.67;10.77;;;22.60;1.00;;;;;;6337599;22;20499;-39
2023/08/22 02:54:49;;;;;;;12.97;11.83;;;22.60;1.00;;;;;;6337837;22;20407;-41
2023/08/22 02:57:14;;;;;;;12.30;11.33;;;22.60;1.00;;;;;;6336708;22;20381;-42
2023/08/22 02:59:40;;;;;;;13.00;11.90;;;22.60;1.00;;;;;;6337741;22;20221;-38
2023/08/22 03:02:06;;;;;;;12.83;11.63;;;22.50;1.00;;;;;;6338496;22;20219;-39
2023/08/22 03:04:33;;;;;;;11.87;10.97;;;22.50;1.00;;;;;;6339265;22;20180;-41
2023/08/22 03:06:59;;;;;;;12.67;11.43;;;22.50;1.00;;;;;;6338983;22;20361;-41
2023/08/22 03:09:25;;;;;;;11.80;10.90;;;22.40;1.00;;;;;;6337939;22;20381;-41
2023/08/22 03:11:51;;;;;;;13.20;12.10;;;22.40;1.00;;;;;;6339809;22;20432;-41
2023/08/22 03:14:17;;;;;;;13.33;12.23;;;22.40;1.00;;;;;;6340985;22;20389;-39
2023/08/22 03:16:42;;;;;;;12.67;11.40;;;22.30;1.00;;;;;;6340005;22;20167;-39
2023/08/22 03:19:08;;;;;;;15.03;10.93;;;22.30;1.00;;;;;;6339022;22;20175;-41
2023/08/22 03:21:33;;;;;;;13.40;12.10;;;22.30;1.00;;;;;;6338830;22;20188;-39
2023/08/22 03:23:59;;;;;;;12.73;11.73;;;22.30;1.00;;;;;;6338875;22;20594;-39
2023/08/22 03:26:25;;;;;;;12.23;11.23;;;22.20;1.00;;;;;;6339096;22;20189;-42
2023/08/22 03:28:51;;;;;;;13.30;12.20;;;22.20;1.00;;;;;;6339139;22;20151;-39
2023/08/22 03:31:16;;;;;;;13.63;12.43;;;22.10;1.00;;;;;;6337382;22;20416;-40
2023/08/22 03:33:42;;;;;;;12.90;11.77;;;22.10;1.00;;;;;;6338242;22;20514;-41
2023/08/22 03:36:08;;;;;;;13.90;12.70;;;22.10;1.00;;;;;;6339674;22;20463;-41
2023/08/22 03:38:33;;;;;;;14.03;12.50;;;22.00;1.00;;;;;;6339980;22;20152;-39
2023/08/22 03:40:59;;;;;;;12.97;11.97;;;22.10;1.00;;;;;;6338365;22;20381;-39
2023/08/22 03:43:25;;;;;;;12.70;11.70;;;22.00;1.00;;;;;;6336721;22;20136;-39
2023/08/22 03:45:50;;;;;;;13.50;12.43;;;22.00;1.00;;;;;;6338722;22;20162;-41
2023/08/22 03:48:16;;;;;;;12.53;11.43;;;22.00;1.00;;;;;;6340579;22;20161;-40
2023/08/22 03:50:42;;;;;;;12.93;11.80;;;21.90;1.00;;;;;;6337870;22;20230;-41
2023/08/22 03:53:12;;;;;;;12.20;11.10;;;21.90;1.00;;;;;;6339474;22;20380;-41
2023/08/22 03:55:38;;;;;;;13.47;12.37;;;21.90;1.00;;;;;;6340493;22;20476;-41
2023/08/22 03:58:04;;;;;;;13.13;12.03;;;21.90;1.00;;;;;;6340666;22;20599;-38
2023/08/22 04:00:30;;;;;;;11.13;10.30;;;21.90;1.00;;;;;;6342459;22;20414;-39
2023/08/22 04:02:57;;;;;;;11.93;11.00;;;21.90;1.00;;;;;;6339297;22;20234;-41
2023/08/22 04:05:23;;;;;;;13.00;11.80;;;21.90;1.00;;;;;;6337439;22;20462;-42
2023/08/22 04:07:50;;;;;;;13.03;12.03;;;21.90;1.00;;;;;;6337646;22;20715;-39
2023/08/22 04:10:18;;;;;;;12.57;11.43;;;21.90;1.00;;;;;;6335490;22;20365;-40
2023/08/22 04:12:44;;;;;;;19.43;12.70;;;21.90;1.00;;;;;;6336672;22;20409;-40
2023/08/22 04:15:11;;;;;;;12.40;11.30;;;22.00;1.00;;;;;;6337800;22;20458;-41
2023/08/22 04:17:38;;;;;;;13.27;12.07;;;22.20;1.00;;;;;;6339014;22;20617;-40
2023/08/22 04:20:06;;;;;;;12.47;11.37;;;22.30;1.00;;;;;;6339176;22;20377;-43
2023/08/22 04:22:31;;;;;;;13.40;12.10;;;22.50;1.00;;;;;;6336402;22;20408;-41
2023/08/22 04:24:57;;;;;;;11.27;10.37;;;22.60;99.90;;;;;;6337404;22;20706;-43
2023/08/22 04:27:23;;;;;;;13.20;11.80;;;22.70;99.90;;;;;;6339766;22;20156;-43
2023/08/22 04:29:48;;;;;;;11.63;10.63;;;22.80;99.90;;;;;;6339162;22;20230;-41
2023/08/22 04:32:14;;;;;;;12.07;11.07;;;22.80;99.90;;;;;;6336405;22;20541;-40
2023/08/22 04:34:40;;;;;;;11.20;10.40;;;22.90;99.90;;;;;;6337560;22;20319;-41
2023/08/22 04:37:05;;;;;;;12.47;11.40;;;22.90;99.90;;;;;;6336741;22;20124;-41
2023/08/22 04:39:31;;;;;;;11.87;10.87;;;22.90;99.90;;;;;;6335835;22;20148;-42
2023/08/22 04:41:56;;;;;;;11.67;10.67;;;22.90;99.90;;;;;;6335277;22;20155;-41
2023/08/22 04:44:22;;;;;;;11.67;10.77;;;22.90;99.90;;;;;;6335853;22;20190;-42
2023/08/22 04:46:48;;;;;;;11.37;10.47;;;22.90;99.90;;;;;;6332972;22;20159;-42
2023/08/22 04:49:13;;;;;;;11.93;10.93;;;22.90;99.90;;;;;;6333926;22;20143;-42
2023/08/22 04:51:39;;;;;;;13.03;11.80;;;22.90;99.90;;;;;;6334201;22;20461;-40
2023/08/22 04:54:05;;;;;;;12.53;11.50;;;22.90;94.60;;;;;;6335986;22;20162;-40
2023/08/22 04:56:30;;;;;;;12.03;10.93;;;22.90;99.90;;;;;;6334725;22;20400;-40
2023/08/22 04:58:56;;;;;;;11.40;10.40;;;22.90;99.90;;;;;;6334980;22;20406;-41
2023/08/22 05:01:21;;;;;;;12.17;11.00;;;22.90;99.90;;;;;;6336742;22;20214;-41
2023/08/22 05:03:47;;;;;;;12.00;11.00;;;22.90;22.00;;;;;;6335401;22;20147;-42
2023/08/22 05:06:13;;;;;;;12.87;11.67;;;22.90;45.20;;;;;;6334609;22;20151;-40
2023/08/22 05:08:38;;;;;;;11.90;11.00;;;22.90;49.30;;;;;;6334596;22;20419;-41
2023/08/22 05:11:04;;;;;;;11.87;10.97;;;22.90;43.60;;;;;;6334642;22;20499;-42
2023/08/22 05:13:30;;;;;;;12.33;11.17;;;22.90;33.90;;;;;;6336660;22;20131;-41
2023/08/22 05:15:55;;;;;;;12.40;11.27;;;23.00;5.90;;;;;;6336825;22;20185;-42
2023/08/22 05:18:21;;;;;;;12.00;10.90;;;23.00;1.00;;;;;;6337097;22;20154;-40
2023/08/22 05:20:51;;;;;;;12.57;11.37;;;23.10;1.00;;;;;;6339543;22;20435;-42
2023/08/22 05:23:17;;;;;;;12.90;11.70;;;23.10;1.00;;;;;;6338711;22;20229;-43
2023/08/22 05:25:43;;;;;;;13.40;12.10;;;23.10;1.00;;;;;;6338477;22;20381;-40
2023/08/22 05:28:08;;;;;;;11.20;10.40;;;23.10;1.00;;;;;;6337409;22;20127;-42
2023/08/22 05:30:38;;;;;;;12.87;11.70;;;23.10;1.00;;;;;;6335717;22;20573;-41
2023/08/22 05:33:04;;;;;;;12.63;11.40;;;23.10;1.00;;;;;;6334424;22;20593;-41
2023/08/22 05:35:30;;;;;;;12.37;11.17;;;23.10;1.00;;;;;;6335386;22;20766;-42
2023/08/22 05:37:55;;;;;;;13.17;11.83;;;23.10;1.00;;;;;;6336892;22;20442;-40
2023/08/22 05:40:21;;;;;;;13.23;12.13;;;23.10;1.00;;;;;;6336438;22;20206;-41
2023/08/22 05:42:47;;;;;;;13.70;12.23;;;23.10;1.00;;;;;;6335720;22;20265;-42
2023/08/22 05:45:12;;;;;;;12.57;11.47;;;23.00;1.00;;;;;;6337709;22;20246;-40
2023/08/22 05:47:38;;;;;;;13.10;11.37;;;23.00;1.00;;;;;;6335329;22;20151;-41
2023/08/22 05:50:04;;;;;;;13.03;11.93;;;23.10;1.00;;;;;;6335285;22;20201;-40
2023/08/22 05:52:30;;;;;;;14.27;13.17;;;23.10;1.00;;;;;;6335722;22;20808;-41
2023/08/22 05:54:56;;;;;;;13.67;11.37;;;23.20;1.00;;;;;;6336708;22;20354;-40
2023/08/22 05:57:24;;;;;;;12.57;11.47;;;23.30;1.00;;;;;;6337744;22;20479;-41
2023/08/22 05:59:50;;;;;;;14.07;12.73;;;23.40;1.00;;;;;;6336312;22;20479;-42
2023/08/22 06:02:16;;;;;;;15.63;12.40;;;23.40;99.90;;;;;;6335883;22;20427;-35
2023/08/22 06:04:46;;;;;;;11.70;10.70;;;23.40;1.00;;;;;;6337592;22;20151;-36
2023/08/22 06:07:11;;;;;;;12.57;11.53;;;23.50;1.00;;;;;;6334132;22;20380;-36
2023/08/22 06:09:37;;;;;;;12.60;11.40;;;23.50;99.90;;;;;;6334601;22;20416;-38
2023/08/22 06:12:03;;;;;;;13.00;11.77;;;23.50;99.90;;;;;;6334540;22;20285;-36
2023/08/22 06:14:29;;;;;;;12.43;11.27;;;23.60;99.90;;;;;;6334450;22;20171;-36
2023/08/22 06:16:55;;;;;;;12.23;11.03;;;23.70;99.90;;;;;;6336198;22;20408;-36
2023/08/22 06:19:20;;;;;;;13.60;12.30;;;23.80;10.00;;;;;;6337098;22;20365;-35
2023/08/22 06:21:46;;;;;;;11.33;10.33;;;23.80;1.00;;;;;;6335758;22;20219;-39
2023/08/22 06:24:12;;;;;;;12.33;11.23;;;23.70;1.00;;;;;;6335969;22;20566;-37
2023/08/22 06:26:37;;;;;;;11.53;10.67;;;23.90;1.00;;;;;;6337868;22;20411;-37
2023/08/22 06:29:03;;;;;;;11.83;10.50;;;24.00;99.90;;;;;;6337974;22;20229;-36
2023/08/22 06:31:29;;;;;;;12.27;11.10;;;24.10;91.50;;;;;;6338101;22;20454;-40
2023/08/22 06:33:55;;;;;;;10.80;9.87;;;24.30;1.00;;;;;;6338169;22;20153;-37
2023/08/22 06:36:21;;;;;;;11.30;10.10;;;24.40;99.90;;;;;;6339887;22;20384;-40
2023/08/22 06:38:46;;;;;;;11.30;10.30;;;24.60;99.90;;;;;;6339909;22;20609;-36
2023/08/22 06:41:12;;;;;;;11.57;10.47;;;24.70;1.00;;;;;;6340613;22;20463;-37
2023/08/22 06:43:38;;;;;;;11.07;9.80;;;24.80;1.00;;;;;;6340080;22;20238;-37
2023/08/22 06:46:03;;;;;;;11.17;10.00;;;24.90;1.00;;;;;;6337689;22;20266;-38
2023/08/22 06:48:29;;;;;;;13.33;10.20;;;25.10;99.90;;;;;;6339235;22;20189;-39
2023/08/22 06:50:55;;;;;;;10.23;9.03;;;25.20;99.90;;;;;;6337539;22;20161;-37
2023/08/22 06:53:20;;;;;;;9.43;8.63;;;25.40;99.90;;;;;;6338733;22;20292;-39
2023/08/22 06:55:47;;;;;;;11.20;10.20;;;25.60;50.10;;;;;;6336316;22;20229;-37
2023/08/22 06:58:13;;;;;;;10.77;9.77;;;25.80;1.00;;;;;;6335101;22;20153;-38
2023/08/22 07:00:38;;;;;;;11.20;10.20;;;26.10;99.90;;;;;;6337049;22;20796;-37
2023/08/22 07:03:04;;;;;;;11.10;10.10;;;26.30;1.00;;;;;;6335912;22;20177;-36
2023/08/22 07:05:30;;;;;;;9.80;9.00;;;26.40;1.00;;;;;;6337138;22;20163;-37
2023/08/22 07:07:56;;;;;;;10.97;10.10;;;26.60;99.90;;;;;;6338815;22;20161;-37
2023/08/22 07:10:22;;;;;;;9.33;8.50;;;26.60;99.90;;;;;;6336922;22;20155;-38
2023/08/22 07:12:47;;;;;;;9.77;8.93;;;26.60;99.90;;;;;;6338706;22;20812;-38
2023/08/22 07:15:13;;;;;;;9.03;8.23;;;26.90;99.90;;;;;;6339098;22;20151;-37
2023/08/22 07:17:39;;;;;;;9.30;8.27;;;27.20;31.30;;;;;;6340448;22;20161;-39
2023/08/22 07:20:05;;;;;;;8.83;7.97;;;27.40;1.00;;;;;;6340156;22;20511;-36
2023/08/22 07:22:32;;;;;;;8.57;7.73;;;27.80;1.00;;;;;;6339928;22;20139;-39
2023/08/22 07:24:58;;;;;;;8.43;7.73;;;28.00;99.90;;;;;;6340014;22;20358;-37
2023/08/22 07:27:24;;;;;;;8.53;7.73;;;28.10;99.90;;;;;;6337968;22;20450;-36
2023/08/22 07:29:50;;;;;;;11.40;8.50;;;28.20;99.90;;;;;;6335827;22;20159;-41
2023/08/22 07:32:18;;;;;;;9.00;8.20;;;28.30;99.90;;;;;;6334720;22;20254;-37
2023/08/22 07:34:45;;;;;;;9.00;8.20;;;28.50;99.90;;;;;;6335465;22;20423;-39
2023/08/22 07:37:10;;;;;;;12.00;8.37;;;28.70;99.90;;;;;;6335952;22;20395;-38
2023/08/22 07:39:36;;;;;;;9.70;7.90;;;28.90;99.90;;;;;;6335435;22;20393;-37
2023/08/22 07:42:02;;;;;;;8.63;7.63;;;29.10;99.90;;;;;;6337315;22;20499;-36
2023/08/22 07:44:28;;;;;;;8.80;8.00;;;29.30;99.90;;;;;;6337396;22;20151;-38
2023/08/22 07:46:54;;;;;;;9.93;7.60;;;29.60;99.90;;;;;;6336481;22;20419;-38
2023/08/22 07:49:19;;;;;;;8.83;8.03;;;29.70;80.80;;;;;;6338755;22;20143;-38
2023/08/22 07:51:45;;;;;;;9.00;7.03;;;29.80;52.40;;;;;;6338294;22;20159;-37
2023/08/22 07:54:11;;;;;;;7.50;6.77;;;30.10;39.70;;;;;;6338482;22;20248;-40
2023/08/22 07:56:37;;;;;;;8.27;6.83;;;30.50;24.00;;;;;;6336772;22;20147;-37
2023/08/22 07:59:02;;;;;;;7.23;6.60;;;30.50;1.00;;;;;;6337472;22;20356;-36
2023/08/22 08:01:28;;;;;;;6.40;5.90;;;30.50;1.00;;;;;;6336823;22;20200;-37
2023/08/22 08:03:55;;;;;;;7.27;6.67;;;30.70;1.00;;;;;;6336508;22;20135;-38
2023/08/22 08:06:20;;;;;;;8.20;7.37;;;30.80;1.00;;;;;;6335267;22;20521;-37
2023/08/22 08:08:48;;;;;;;8.40;7.50;;;30.80;1.00;;;;;;6336157;22;20400;-38
2023/08/22 08:11:15;;;;;;;10.40;6.83;;;30.70;1.00;;;;;;6337555;22;20186;-38
2023/08/22 08:13:41;;;;;;;7.10;6.33;;;30.90;1.00;;;;;;6337505;22;20850;-37
2023/08/22 08:16:06;;;;;;;6.97;6.37;;;31.00;1.00;;;;;;6337667;22;20355;-38
2023/08/22 08:18:32;;;;;;;6.10;5.07;;;31.10;1.00;;;;;;6337716;22;20444;-37
2023/08/22 08:20:58;;;;;;;6.33;5.70;;;31.40;1.00;;;;;;6338030;22;20151;-37
2023/08/22 08:23:23;;;;;;;6.50;4.97;;;31.80;1.00;;;;;;6336131;22;20199;-37
2023/08/22 08:25:49;;;;;;;5.87;5.37;;;32.10;1.00;;;;;;6337182;22;20155;-38
2023/08/22 08:28:15;;;;;;;5.90;5.30;;;32.40;1.00;;;;;;6336894;22;20208;-38
2023/08/22 08:30:40;;;;;;;6.50;5.90;;;32.80;1.00;;;;;;6337742;22;20227;-38
2023/08/22 08:33:07;;;;;;;5.90;5.30;;;32.90;1.00;;;;;;6337237;22;20198;-39
2023/08/22 08:35:33;;;;;;;6.80;6.20;;;33.10;1.00;;;;;;6335719;22;20166;-38
2023/08/22 08:37:59;;;;;;;7.50;5.50;;;33.30;1.00;;;;;;6335953;22;20408;-37
2023/08/22 08:40:26;;;;;;;7.00;5.97;;;33.40;1.00;;;;;;6338070;22;20426;-41
2023/08/22 08:42:52;;;;;;;6.80;6.10;;;33.00;1.00;;;;;;6334229;22;20364;-39
2023/08/22 08:45:18;;;;;;;6.03;5.47;;;32.80;1.00;;;;;;6334477;22;20803;-39
2023/08/22 08:47:44;;;;;;;6.80;6.20;;;32.90;1.00;;;;;;6337285;22;20151;-40
2023/08/22 08:50:10;;;;;;;6.17;5.67;;;32.90;1.00;;;;;;6339130;22;20774;-38
2023/08/22 08:52:36;;;;;;;6.13;5.63;;;33.20;1.00;;;;;;6337750;22;21001;-41
2023/08/22 08:55:06;;;;;;;6.10;5.53;;;33.70;1.00;;;;;;6336092;22;20138;-38
2023/08/22 08:57:32;;;;;;;6.50;6.00;;;33.80;1.00;;;;;;6335827;22;20391;-37
2023/08/22 09:00:02;;;;;;;6.07;5.47;;;33.80;1.00;;;;;;6336366;22;20360;-37
2023/08/22 09:02:28;;;;;;;6.57;5.97;;;34.00;1.00;;;;;;6336986;22;20158;-37
2023/08/22 09:04:54;;;;;;;6.17;5.67;;;34.30;1.00;;;;;;6334522;22;20759;-43
2023/08/22 09:07:20;;;;;;;6.40;6.00;;;34.50;1.00;;;;;;6336440;22;20343;-38
2023/08/22 09:09:45;;;;;;;6.73;6.23;;;34.70;1.00;;;;;;6337979;22;20751;-38
2023/08/22 09:12:13;;;;;;;6.93;6.20;;;35.10;1.00;;;;;;6335762;22;20210;-39
2023/08/22 09:14:48;;;;;;;6.60;5.93;;;35.50;1.00;;;;;;6337756;22;20147;-40
2023/08/22 09:17:15;;;;;;;6.57;6.07;;;35.90;1.00;;;;;;6337718;22;20355;-35
2023/08/22 09:19:40;;;;;;;8.20;6.70;;;36.20;1.00;;;;;;6334572;22;20448;-37
2023/08/22 09:22:06;;;;;;;8.10;6.60;;;36.30;1.00;;;;;;6333928;22;20933;-37
2023/08/22 09:24:32;;;;;;;8.60;6.60;;;36.60;1.00;;;;;;6335699;22;20528;-37
2023/08/22 09:27:02;;;;;;;6.37;5.87;;;36.90;1.00;;;;;;6338261;22;20159;-39
2023/08/22 09:29:28;;;;;;;7.00;6.30;;;36.60;1.00;;;;;;6337668;22;20383;-37
2023/08/22 09:32:03;;;;;;;7.30;6.60;;;36.50;1.00;;;;;;6338913;22;20395;-40
2023/08/22 09:34:29;;;;;;;7.23;6.27;;;36.80;1.00;;;;;;6336852;22;20613;-39
2023/08/22 09:36:55;;;;;;;5.90;5.50;;;36.30;1.00;;;;;;6337206;22;20892;-38
2023/08/22 09:39:22;;;;;;;6.50;6.00;;;36.00;1.00;;;;;;6335436;22;20484;-40
2023/08/22 09:42:00;;;;;;;7.20;6.60;;;35.60;1.00;;;;;;6334893;22;20460;-37
2023/08/22 09:44:28;;;;;;;7.17;5.90;;;35.70;1.00;;;;;;6335618;22;20696;-37
2023/08/22 09:46:55;;;;;;;6.73;6.13;;;35.60;1.00;;;;;;6334948;22;20444;-36
2023/08/22 09:49:21;;;;;;;6.17;5.57;;;35.10;1.00;;;;;;6335421;22;20384;-39
2023/08/22 09:51:48;;;;;;;7.13;6.53;;;34.80;1.00;;;;;;6338390;22;20383;-37
2023/08/22 09:54:14;;;;;;;6.80;6.20;;;34.50;1.00;;;;;;6338798;22;20377;-41
2023/08/22 09:56:41;;;;;;;7.63;6.93;;;34.80;1.00;;;;;;6336978;22;20484;-40
2023/08/22 09:59:07;;;;;;;6.50;6.00;;;35.10;1.00;;;;;;6335868;22;20372;-36
2023/08/22 10:01:37;;;;;;;6.80;6.20;;;35.40;1.00;;;;;;6336761;22;20362;-38
2023/08/22 10:04:03;;;;;;;6.40;5.80;;;35.50;1.00;;;;;;6336642;22;20389;-38
2023/08/22 10:06:31;;;;;;;6.60;6.00;;;36.00;1.00;;;;;;6337897;22;20390;-41
2023/08/22 10:08:57;;;;;;;6.40;5.90;;;35.70;1.00;;;;;;6336844;22;20431;-38
2023/08/22 10:11:23;;;;;;;6.67;6.07;;;35.70;1.00;;;;;;6337669;22;20475;-38
2023/08/22 10:13:49;;;;;;;7.63;6.30;;;36.10;1.00;;;;;;6339225;22;20399;-38
2023/08/22 10:16:15;;;;;;;6.70;6.20;;;36.70;1.00;;;;;;6336669;22;20349;-37
2023/08/22 10:18:41;;;;;;;7.30;6.67;;;36.90;1.00;;;;;;6337285;22;20340;-40
2023/08/22 10:21:06;;;;;;;7.13;6.53;;;37.20;1.00;;;;;;6334870;22;20143;-42
2023/08/22 10:23:59;;;;;;;7.57;6.87;;;36.80;1.00;;;;;;6336603;22;20198;-38
2023/08/22 10:26:47;;;;;;;7.53;5.90;;;37.00;1.00;;;;;;6331094;22;20170;-40
2023/08/22 10:29:14;;;;;;;6.33;5.73;;;37.60;1.00;;;;;;6337313;22;20468;-41
2023/08/22 10:32:02;;;;;;;6.47;6.00;;;37.40;1.00;;;;;;6337830;22;20428;-41
2023/08/22 10:34:35;;;;;;;6.57;6.10;;;36.90;1.00;;;;;;6337889;22;20345;-39
2023/08/22 10:37:03;;;;;;;6.30;5.80;;;36.80;1.00;;;;;;6337950;22;20350;-38
2023/08/22 10:39:39;;;;;;;7.17;6.57;;;37.30;1.00;;;;;;6337404;22;20352;-39
2023/08/22 10:42:16;;;;;;;6.90;6.30;;;36.80;1.00;;;;;;6339409;22;20438;-38
2023/08/22 10:44:42;;;;;;;7.00;6.40;;;36.40;1.00;;;;;;6338405;22;21052;-38
2023/08/22 10:47:15;;;;;;;7.10;6.60;;;36.40;1.00;;;;;;6337321;22;20396;-38
2023/08/22 10:49:42;;;;;;;6.80;6.10;;;36.90;1.00;;;;;;6309468;22;20649;-37
2023/08/22 10:52:09;;;;;;;7.10;6.50;;;37.60;1.00;;;;;;6335343;22;20463;-39
2023/08/22 10:55:01;;;;;;;6.50;6.00;;;38.10;1.00;;;;;;6333564;22;20367;-38
2023/08/22 10:57:27;;;;;;;6.53;6.03;;;38.20;1.00;;;;;;6306245;22;20495;-37
2023/08/22 10:59:59;;;;;;;6.53;5.93;;;38.80;1.00;;;;;;6336588;22;20389;-40
2023/08/22 11:02:29;;;;;;;6.50;6.10;;;39.60;1.00;;;;;;6339118;22;20614;-38
2023/08/22 11:04:58;;;;;;;6.50;5.90;;;40.30;1.00;;;;;;6339218;22;20382;-42
2023/08/22 11:07:25;;;;;;;6.87;6.20;;;40.70;1.00;;;;;;6337188;22;20373;-38
2023/08/22 11:09:51;;;;;;;6.90;6.23;;;40.10;1.00;;;;;;6336489;22;20446;-37
2023/08/22 11:12:27;;;;;;;5.53;5.03;;;39.00;1.00;;;;;;6338666;22;20428;-38
2023/08/22 11:14:54;;;;;;;6.87;6.37;;;38.50;1.00;;;;;;6340349;22;20155;-38
2023/08/22 11:17:22;;;;;;;6.43;5.93;;;37.90;1.00;;;;;;6338966;22;20401;-43
2023/08/22 11:19:49;;;;;;;6.70;6.20;;;37.50;1.00;;;;;;6337082;22;20460;-37
2023/08/22 11:22:15;;;;;;;6.53;6.10;;;37.20;1.00;;;;;;6337248;22;20365;-38
2023/08/22 11:24:42;;;;;;;6.50;6.00;;;36.80;1.00;;;;;;6335582;22;20336;-37
2023/08/22 11:27:08;;;;;;;7.10;6.50;;;36.50;1.00;;;;;;6334124;22;20373;-42
2023/08/22 11:29:42;;;;;;;6.43;5.93;;;36.60;1.00;;;;;;6334708;22;20434;-38
2023/08/22 11:32:21;;;;;;;8.13;6.73;;;36.70;1.00;;;;;;6335855;22;20178;-36
2023/08/22 11:34:51;;;;;;;6.23;5.70;;;36.70;1.00;;;;;;6335918;22;20381;-37
2023/08/22 11:37:18;;;;;;;7.20;6.50;;;36.50;1.00;;;;;;6336407;22;20325;-36
2023/08/22 11:39:50;;;;;;;6.60;6.20;;;36.70;1.00;;;;;;6333911;22;20364;-39
2023/08/22 11:42:17;;;;;;;6.30;5.80;;;36.90;1.00;;;;;;6332419;22;20583;-38
2023/08/22 11:44:56;;;;;;;7.20;5.93;;;36.80;1.00;;;;;;6333119;22;20384;-38
2023/08/22 11:47:22;;;;;;;7.60;6.90;;;36.70;1.00;;;;;;6336282;22;20717;-36
2023/08/22 11:49:50;;;;;;;6.63;6.13;;;36.60;1.00;;;;;;6336672;22;20393;-38
2023/08/22 11:52:17;;;;;;;6.70;6.10;;;36.20;1.00;;;;;;6335938;22;20201;-38
2023/08/22 11:54:44;;;;;;;6.97;6.30;;;35.90;1.00;;;;;;6337067;22;20730;-41
2023/08/22 11:57:11;;;;;;;6.67;6.10;;;35.50;1.00;;;;;;6337424;22;20356;-37
2023/08/22 11:59:40;;;;;;;6.93;6.23;;;35.20;1.00;;;;;;6337194;22;20370;-37
2023/08/22 12:02:07;;;;;;;6.57;5.90;;;35.20;1.00;;;;;;6331886;22;20692;-39
2023/08/22 12:04:42;;;;;;;6.77;6.10;;;35.10;1.00;;;;;;6332885;22;20343;-38
2023/08/22 12:07:08;;;;;;;6.53;5.77;;;35.00;1.00;;;;;;6333783;22;20491;-37
2023/08/22 12:09:34;;;;;;;6.77;6.27;;;35.30;1.00;;;;;;6335775;22;20364;-37
2023/08/22 12:12:14;;;;;;;7.90;6.80;;;35.40;1.00;;;;;;6336258;22;20175;-37
2023/08/22 12:14:39;;;;;;;7.13;6.30;;;34.70;1.00;;;;;;6336052;22;20222;-40
2023/08/22 12:17:05;;;;;;;6.50;5.90;;;35.00;1.00;;;;;;6334366;22;20383;-39
2023/08/22 12:19:31;;;;;;;7.70;7.10;;;35.50;1.00;;;;;;6335036;22;20127;-38
2023/08/22 12:22:02;;;;;;;7.80;6.10;;;35.90;1.00;;;;;;6335806;22;20507;-39
2023/08/22 12:24:28;;;;;;;6.53;6.07;;;36.40;1.00;;;;;;6335432;22;20594;-37
2023/08/22 12:26:55;;;;;;;6.97;6.33;;;36.60;1.00;;;;;;6335423;22;20406;-38
2023/08/22 12:29:21;;;;;;;6.80;6.20;;;36.70;1.00;;;;;;6333767;22;20154;-39
2023/08/22 12:31:47;;;;;;;6.53;5.97;;;36.30;1.00;;;;;;6334262;22;20448;-38
2023/08/22 12:34:13;;;;;;;6.47;5.93;;;36.20;1.00;;;;;;6334358;22;20127;-41
2023/08/22 12:36:39;;;;;;;6.80;6.20;;;36.30;1.00;;;;;;6334875;22;20778;-38
2023/08/22 12:39:05;;;;;;;6.93;6.33;;;37.10;1.00;;;;;;6333138;22;20388;-38
2023/08/22 12:41:31;;;;;;;6.17;5.77;;;37.70;1.00;;;;;;6335381;22;20473;-38